sensor_id;sensor_type;location;lat;lon;timestamp;pressure;altitude;pressure_sealevel;temperature;humidity
70900;BME280;67902;52.154;5.430;2023-05-07T00:02:17;101720.91;;;15.00;85.59
70900;BME280;67902;52.154;5.430;2023-05-07T00:04:43;101722.16;;;14.93;87.16
70900;BME280;67902;52.154;5.430;2023-05-07T00:07:10;101721.56;;;14.91;87.35
70900;BME280;67902;52.154;5.430;2023-05-07T00:09:36;101727.53;;;14.88;87.16
70900;BME280;67902;52.154;5.430;2023-05-07T00:12:03;101720.94;;;14.84;86.50
70900;BME280;67902;52.154;5.430;2023-05-07T00:14:29;101717.38;;;14.83;87.02
70900;BME280;67902;52.154;5.430;2023-05-07T00:16:56;101720.19;;;14.72;86.67
70900;BME280;67902;52.154;5.430;2023-05-07T00:19:22;101730.38;;;14.76;86.51
70900;BME280;67902;52.154;5.430;2023-05-07T00:21:49;101719.38;;;14.71;86.10
70900;BME280;67902;52.154;5.430;2023-05-07T00:24:15;101721.94;;;14.61;86.25
70900;BME280;67902;52.154;5.430;2023-05-07T00:26:41;101726.16;;;14.52;86.26
70900;BME280;67902;52.154;5.430;2023-05-07T00:29:08;101720.16;;;14.50;87.35
70900;BME280;67902;52.154;5.430;2023-05-07T00:31:34;101716.34;;;14.51;86.02
70900;BME280;67902;52.154;5.430;2023-05-07T00:34:01;101715.09;;;14.42;86.85
70900;BME280;67902;52.154;5.430;2023-05-07T00:36:28;101711.91;;;14.45;86.38
70900;BME280;67902;52.154;5.430;2023-05-07T00:38:56;101714.13;;;14.48;86.84
70900;BME280;67902;52.154;5.430;2023-05-07T00:41:23;101716.34;;;14.51;87.48
70900;BME280;67902;52.154;5.430;2023-05-07T00:43:49;101705.69;;;14.49;87.35
70900;BME280;67902;52.154;5.430;2023-05-07T00:46:20;101703.72;;;14.45;87.21
70900;BME280;67902;52.154;5.430;2023-05-07T00:48:47;101708.25;;;14.39;87.36
70900;BME280;67902;52.154;5.430;2023-05-07T00:51:14;101697.16;;;14.46;87.30
70900;BME280;67902;52.154;5.430;2023-05-07T00:53:40;101696.38;;;14.45;87.67
70900;BME280;67902;52.154;5.430;2023-05-07T00:56:07;101694.94;;;14.43;88.21
70900;BME280;67902;52.154;5.430;2023-05-07T00:58:33;101696.88;;;14.42;87.70
70900;BME280;67902;52.154;5.430;2023-05-07T01:01:00;101703.13;;;14.43;87.85
70900;BME280;67902;52.154;5.430;2023-05-07T01:03:27;101699.59;;;14.42;87.49
70900;BME280;67902;52.154;5.430;2023-05-07T01:05:54;101702.47;;;14.36;87.91
70900;BME280;67902;52.154;5.430;2023-05-07T01:08:24;101698.69;;;14.37;88.89
70900;BME280;67902;52.154;5.430;2023-05-07T01:10:52;101693.72;;;14.34;87.91
70900;BME280;67902;52.154;5.430;2023-05-07T01:13:19;101696.91;;;14.31;88.92
70900;BME280;67902;52.154;5.430;2023-05-07T01:15:46;101694.19;;;14.31;88.27
70900;BME280;67902;52.154;5.430;2023-05-07T01:18:13;101696.91;;;14.31;88.83
70900;BME280;67902;52.154;5.430;2023-05-07T01:20:40;101692.53;;;14.30;88.94
70900;BME280;67902;52.154;5.430;2023-05-07T01:23:06;101697.63;;;14.26;88.45
70900;BME280;67902;52.154;5.430;2023-05-07T01:25:33;101696.91;;;14.31;88.27
70900;BME280;67902;52.154;5.430;2023-05-07T01:27:59;101696.31;;;14.29;88.46
70900;BME280;67902;52.154;5.430;2023-05-07T01:30:28;101692.19;;;14.26;89.50
70900;BME280;67902;52.154;5.430;2023-05-07T01:33:09;101697.97;;;14.30;89.56
70900;BME280;67902;52.154;5.430;2023-05-07T01:35:41;101693.59;;;14.29;89.37
70900;BME280;67902;52.154;5.430;2023-05-07T01:38:10;101705.25;;;14.24;89.75
70900;BME280;67902;52.154;5.430;2023-05-07T01:40:36;101700.63;;;14.25;89.60
70900;BME280;67902;52.154;5.430;2023-05-07T01:43:03;101697.91;;;14.25;89.82
70900;BME280;67902;52.154;5.430;2023-05-07T01:45:30;101696.22;;;14.24;89.67
70900;BME280;67902;52.154;5.430;2023-05-07T01:48:02;101697.34;;;14.23;90.00
70900;BME280;67902;52.154;5.430;2023-05-07T01:50:30;101700.28;;;14.21;89.50
70900;BME280;67902;52.154;5.430;2023-05-07T01:52:57;101690.72;;;14.19;89.55
70900;BME280;67902;52.154;5.430;2023-05-07T01:55:24;101697.81;;;14.20;90.36
70900;BME280;67902;52.154;5.430;2023-05-07T01:57:50;101694.00;;;14.21;89.81
70900;BME280;67902;52.154;5.430;2023-05-07T02:00:17;101691.88;;;14.23;90.28
70900;BME280;67902;52.154;5.430;2023-05-07T02:02:43;101692.38;;;14.20;90.43
70900;BME280;67902;52.154;5.430;2023-05-07T02:05:10;101690.28;;;14.27;90.19
70900;BME280;67902;52.154;5.430;2023-05-07T02:07:36;101699.56;;;14.26;89.96
70900;BME280;67902;52.154;5.430;2023-05-07T02:10:03;101691.88;;;14.23;89.61
70900;BME280;67902;52.154;5.430;2023-05-07T02:12:29;101706.41;;;14.12;89.15
70900;BME280;67902;52.154;5.430;2023-05-07T02:14:56;101696.97;;;14.03;89.54
70900;BME280;67902;52.154;5.430;2023-05-07T02:17:22;101708.44;;;14.05;90.54
70900;BME280;67902;52.154;5.430;2023-05-07T02:19:49;101701.09;;;14.05;89.70
70900;BME280;67902;52.154;5.430;2023-05-07T02:22:15;101694.81;;;14.05;90.10
70900;BME280;67902;52.154;5.430;2023-05-07T02:24:41;101706.56;;;14.05;90.47
70900;BME280;67902;52.154;5.430;2023-05-07T02:27:08;101699.44;;;14.04;90.08
70900;BME280;67902;52.154;5.430;2023-05-07T02:29:34;101699.13;;;14.01;90.00
70900;BME280;67902;52.154;5.430;2023-05-07T02:32:00;101697.69;;;13.98;89.80
70900;BME280;67902;52.154;5.430;2023-05-07T02:34:27;101693.06;;;13.99;90.96
70900;BME280;67902;52.154;5.430;2023-05-07T02:36:53;101696.97;;;14.03;91.12
70900;BME280;67902;52.154;5.430;2023-05-07T02:39:20;101699.69;;;14.03;90.60
70900;BME280;67902;52.154;5.430;2023-05-07T02:41:46;101704.06;;;14.04;90.71
70900;BME280;67902;52.154;5.430;2023-05-07T02:44:13;101703.56;;;14.07;90.87
70900;BME280;67902;52.154;5.430;2023-05-07T02:46:39;101693.50;;;14.07;90.69
70900;BME280;67902;52.154;5.430;2023-05-07T02:49:05;101702.25;;;14.09;91.21
70900;BME280;67902;52.154;5.430;2023-05-07T02:51:32;101690.56;;;14.09;91.43
70900;BME280;67902;52.154;5.430;2023-05-07T02:53:58;101692.53;;;14.13;91.59
70900;BME280;67902;52.154;5.430;2023-05-07T02:56:25;101697.47;;;14.16;91.83
70900;BME280;67902;52.154;5.430;2023-05-07T02:58:52;101698.06;;;14.18;90.78
70900;BME280;67902;52.154;5.430;2023-05-07T03:01:18;101688.75;;;14.14;90.91
70900;BME280;67902;52.154;5.430;2023-05-07T03:03:45;101688.53;;;14.04;91.29
70900;BME280;67902;52.154;5.430;2023-05-07T03:06:11;101686.44;;;14.06;91.20
70900;BME280;67902;52.154;5.430;2023-05-07T03:08:38;101694.06;;;14.09;91.53
70900;BME280;67902;52.154;5.430;2023-05-07T03:11:04;101688.31;;;14.06;91.67
70900;BME280;67902;52.154;5.430;2023-05-07T03:13:31;101694.47;;;14.01;91.28
70900;BME280;67902;52.154;5.430;2023-05-07T03:15:57;101691.81;;;13.89;91.44
70900;BME280;67902;52.154;5.430;2023-05-07T03:18:23;101695.16;;;13.91;91.61
70900;BME280;67902;52.154;5.430;2023-05-07T03:20:51;101689.69;;;13.91;91.56
70900;BME280;67902;52.154;5.430;2023-05-07T03:23:18;101694.81;;;13.88;91.32
70900;BME280;67902;52.154;5.430;2023-05-07T03:25:44;101692.91;;;13.88;92.24
70900;BME280;67902;52.154;5.430;2023-05-07T03:28:10;101689.09;;;13.89;92.21
70900;BME280;67902;52.154;5.430;2023-05-07T03:30:37;101689.69;;;13.91;92.56
70900;BME280;67902;52.154;5.430;2023-05-07T03:33:03;101689.69;;;13.91;92.58
70900;BME280;67902;52.154;5.430;2023-05-07T03:35:30;101686.72;;;13.93;92.18
70900;BME280;67902;52.154;5.430;2023-05-07T03:37:56;101689.69;;;13.91;92.25
70900;BME280;67902;52.154;5.430;2023-05-07T03:40:22;101687.81;;;13.92;92.71
70900;BME280;67902;52.154;5.430;2023-05-07T03:42:49;101690.19;;;13.88;92.72
70900;BME280;67902;52.154;5.430;2023-05-07T03:45:15;101692.44;;;13.91;92.73
70900;BME280;67902;52.154;5.430;2023-05-07T03:47:42;101689.94;;;13.90;92.28
70900;BME280;67902;52.154;5.430;2023-05-07T03:50:09;101692.81;;;13.83;92.13
70900;BME280;67902;52.154;5.430;2023-05-07T03:52:37;101692.34;;;13.86;92.47
70900;BME280;67902;52.154;5.430;2023-05-07T03:55:04;101694.81;;;13.88;92.88
70900;BME280;67902;52.154;5.430;2023-05-07T03:57:30;101695.63;;;13.88;92.42
70900;BME280;67902;52.154;5.430;2023-05-07T03:59:56;101691.25;;;13.87;92.32
70900;BME280;67902;52.154;5.430;2023-05-07T04:02:23;101698.34;;;13.88;92.68
70900;BME280;67902;52.154;5.430;2023-05-07T04:04:49;101707.84;;;13.86;92.46
70900;BME280;67902;52.154;5.430;2023-05-07T04:07:16;101704.28;;;13.85;92.37
70900;BME280;67902;52.154;5.430;2023-05-07T04:09:42;101714.13;;;13.86;92.42
70900;BME280;67902;52.154;5.430;2023-05-07T04:12:09;101709.59;;;13.92;92.21
70900;BME280;67902;52.154;5.430;2023-05-07T04:14:35;101704.78;;;13.82;92.24
70900;BME280;67902;52.154;5.430;2023-05-07T04:17:01;101711.97;;;13.88;92.79
70900;BME280;67902;52.154;5.430;2023-05-07T04:19:29;101710.31;;;13.87;92.71
70900;BME280;67902;52.154;5.430;2023-05-07T04:21:55;101716.94;;;13.91;92.80
70900;BME280;67902;52.154;5.430;2023-05-07T04:24:21;101708.50;;;13.93;92.83
70900;BME280;67902;52.154;5.430;2023-05-07T04:26:48;101716.75;;;13.98;92.70
70900;BME280;67902;52.154;5.430;2023-05-07T04:29:14;101719.25;;;14.00;92.30
70900;BME280;67902;52.154;5.430;2023-05-07T04:31:41;101713.81;;;14.00;92.37
70900;BME280;67902;52.154;5.430;2023-05-07T04:34:11;101720.16;;;14.05;92.22
70900;BME280;67902;52.154;5.430;2023-05-07T04:36:38;101721.56;;;14.08;91.48
70900;BME280;67902;52.154;5.430;2023-05-07T04:39:04;101721.09;;;14.11;91.63
70900;BME280;67902;52.154;5.430;2023-05-07T04:41:31;101714.81;;;14.10;91.61
70900;BME280;67902;52.154;5.430;2023-05-07T04:43:59;101717.03;;;14.13;91.76
70900;BME280;67902;52.154;5.430;2023-05-07T04:46:25;101711.31;;;14.15;91.86
70900;BME280;67902;52.154;5.430;2023-05-07T04:48:52;101715.63;;;14.11;91.74
70900;BME280;67902;52.154;5.430;2023-05-07T04:51:18;101718.34;;;14.11;90.80
70900;BME280;67902;52.154;5.430;2023-05-07T04:53:45;101725.97;;;14.09;91.20
70900;BME280;67902;52.154;5.430;2023-05-07T04:56:11;101724.63;;;14.11;91.22
70900;BME280;67902;52.154;5.430;2023-05-07T04:58:37;101727.59;;;14.10;90.97
70900;BME280;67902;52.154;5.430;2023-05-07T05:01:04;101726.53;;;14.11;91.70
70900;BME280;67902;52.154;5.430;2023-05-07T05:03:30;101729.34;;;14.16;90.76
70900;BME280;67902;52.154;5.430;2023-05-07T05:05:57;101737.59;;;14.21;91.06
70900;BME280;67902;52.154;5.430;2023-05-07T05:08:25;101730.09;;;14.28;91.01
70900;BME280;67902;52.154;5.430;2023-05-07T05:10:52;101732.00;;;14.27;90.65
70900;BME280;67902;52.154;5.430;2023-05-07T05:13:19;101725.81;;;14.32;91.00
70900;BME280;67902;52.154;5.430;2023-05-07T05:15:45;101728.88;;;14.35;90.34
70900;BME280;67902;52.154;5.430;2023-05-07T05:18:12;101730.56;;;14.36;90.13
70900;BME280;67902;52.154;5.430;2023-05-07T05:20:38;101733.84;;;14.38;90.21
70900;BME280;67902;52.154;5.430;2023-05-07T05:23:04;101743.44;;;14.41;90.07
70900;BME280;67902;52.154;5.430;2023-05-07T05:25:32;101741.03;;;14.44;90.51
70900;BME280;67902;52.154;5.430;2023-05-07T05:27:58;101743.28;;;14.47;90.60
70900;BME280;67902;52.154;5.430;2023-05-07T05:30:24;101739.44;;;14.48;90.82
70900;BME280;67902;52.154;5.430;2023-05-07T05:32:51;101741.44;;;14.53;90.14
70900;BME280;67902;52.154;5.430;2023-05-07T05:35:17;101744.41;;;14.51;90.28
70900;BME280;67902;52.154;5.430;2023-05-07T05:37:44;101746.34;;;14.51;89.68
70900;BME280;67902;52.154;5.430;2023-05-07T05:40:11;101754.00;;;14.54;89.94
70900;BME280;67902;52.154;5.430;2023-05-07T05:42:37;101756.22;;;14.57;90.08
70900;BME280;67902;52.154;5.430;2023-05-07T05:45:04;101757.38;;;14.61;89.67
70900;BME280;67902;52.154;5.430;2023-05-07T05:47:31;101768.38;;;14.66;89.40
70900;BME280;67902;52.154;5.430;2023-05-07T05:49:57;101762.09;;;14.66;88.88
70900;BME280;67902;52.154;5.430;2023-05-07T05:52:24;101763.00;;;14.71;89.12
70900;BME280;67902;52.154;5.430;2023-05-07T05:54:51;101769.03;;;14.73;88.70
70900;BME280;67902;52.154;5.430;2023-05-07T05:57:17;101774.06;;;14.81;89.25
70900;BME280;67902;52.154;5.430;2023-05-07T05:59:43;101765.19;;;14.91;89.17
70900;BME280;67902;52.154;5.430;2023-05-07T06:02:10;101767.94;;;14.91;89.26
70900;BME280;67902;52.154;5.430;2023-05-07T06:04:36;101773.22;;;14.97;88.84
70900;BME280;67902;52.154;5.430;2023-05-07T06:07:03;101775.19;;;15.02;88.05
70900;BME280;67902;52.154;5.430;2023-05-07T06:09:29;101783.97;;;15.04;88.06
70900;BME280;67902;52.154;5.430;2023-05-07T06:11:56;101791.25;;;14.98;87.73
70900;BME280;67902;52.154;5.430;2023-05-07T06:14:25;101788.59;;;15.03;87.88
70900;BME280;67902;52.154;5.430;2023-05-07T06:16:53;101781.47;;;15.02;87.85
70900;BME280;67902;52.154;5.430;2023-05-07T06:19:19;101781.75;;;15.01;87.87
70900;BME280;67902;52.154;5.430;2023-05-07T06:21:49;101778.19;;;15.00;88.25
70900;BME280;67902;52.154;5.430;2023-05-07T06:24:16;101783.13;;;15.03;88.88
70900;BME280;67902;52.154;5.430;2023-05-07T06:26:42;101786.38;;;15.00;88.56
70900;BME280;67902;52.154;5.430;2023-05-07T06:29:09;101793.72;;;15.00;88.74
70900;BME280;67902;52.154;5.430;2023-05-07T06:31:35;101798.66;;;15.03;88.45
70900;BME280;67902;52.154;5.430;2023-05-07T06:34:02;101788.31;;;15.05;88.58
70900;BME280;67902;52.154;5.430;2023-05-07T06:36:28;101787.84;;;15.08;89.00
70900;BME280;67902;52.154;5.430;2023-05-07T06:38:55;101786.50;;;15.10;89.24
70900;BME280;67902;52.154;5.430;2023-05-07T06:41:21;101796.34;;;15.12;89.29
70900;BME280;67902;52.154;5.430;2023-05-07T06:43:48;101797.75;;;15.14;89.54
70900;BME280;67902;52.154;5.430;2023-05-07T06:46:14;101797.56;;;15.21;89.52
70900;BME280;67902;52.154;5.430;2023-05-07T06:48:41;101798.22;;;15.28;89.39
70900;BME280;67902;52.154;5.430;2023-05-07T06:51:07;101802.59;;;15.29;89.52
70900;BME280;67902;52.154;5.430;2023-05-07T06:53:35;101798.53;;;15.31;89.47
70900;BME280;67902;52.154;5.430;2023-05-07T06:56:01;101795.88;;;15.36;89.33
70900;BME280;67902;52.154;5.430;2023-05-07T06:58:28;101787.75;;;15.41;89.00
70900;BME280;67902;52.154;5.430;2023-05-07T07:00:54;101799.00;;;15.45;88.95
70900;BME280;67902;52.154;5.430;2023-05-07T07:03:20;101801.25;;;15.48;88.69
70900;BME280;67902;52.154;5.430;2023-05-07T07:05:47;101794.72;;;15.49;88.08
70900;BME280;67902;52.154;5.430;2023-05-07T07:08:13;101793.72;;;15.55;88.34
70900;BME280;67902;52.154;5.430;2023-05-07T07:10:40;101795.56;;;15.71;88.76
70900;BME280;67902;52.154;5.430;2023-05-07T07:13:07;101787.22;;;15.83;88.34
70900;BME280;67902;52.154;5.430;2023-05-07T07:15:33;101786.56;;;15.97;88.00
70900;BME280;67902;52.154;5.430;2023-05-07T07:17:59;101791.81;;;16.04;86.87
70900;BME280;67902;52.154;5.430;2023-05-07T07:20:26;101793.56;;;16.15;86.70
70900;BME280;67902;52.154;5.430;2023-05-07T07:22:52;101784.88;;;16.45;86.80
70900;BME280;67902;52.154;5.430;2023-05-07T07:25:19;101793.09;;;16.81;84.55
70900;BME280;67902;52.154;5.430;2023-05-07T07:27:45;101789.31;;;16.88;84.95
70900;BME280;67902;52.154;5.430;2023-05-07T07:30:12;101792.09;;;16.93;84.09
70900;BME280;67902;52.154;5.430;2023-05-07T07:32:38;101787.56;;;17.08;84.39
70900;BME280;67902;52.154;5.430;2023-05-07T07:35:06;101794.75;;;17.19;82.16
70900;BME280;67902;52.154;5.430;2023-05-07T07:37:32;101791.50;;;17.27;82.66
70900;BME280;67902;52.154;5.430;2023-05-07T07:39:59;101798.03;;;17.21;82.70
70900;BME280;67902;52.154;5.430;2023-05-07T07:42:26;101804.56;;;17.15;82.25
70900;BME280;67902;52.154;5.430;2023-05-07T07:44:52;101804.88;;;17.19;81.66
70900;BME280;67902;52.154;5.430;2023-05-07T07:47:19;101810.69;;;17.32;81.61
70900;BME280;67902;52.154;5.430;2023-05-07T07:49:45;101806.50;;;17.57;80.47
70900;BME280;67902;52.154;5.430;2023-05-07T07:52:12;101809.06;;;17.83;79.46
70900;BME280;67902;52.154;5.430;2023-05-07T07:54:38;101811.66;;;18.30;78.74
70900;BME280;67902;52.154;5.430;2023-05-07T07:57:05;101810.06;;;18.65;78.50
70900;BME280;67902;52.154;5.430;2023-05-07T07:59:31;101816.66;;;18.74;75.36
70900;BME280;67902;52.154;5.430;2023-05-07T08:01:57;101815.28;;;18.76;76.01
70900;BME280;67902;52.154;5.430;2023-05-07T08:04:24;101811.19;;;18.64;77.34
70900;BME280;67902;52.154;5.430;2023-05-07T08:06:51;101810.06;;;18.70;78.15
70900;BME280;67902;52.154;5.430;2023-05-07T08:09:17;101812.81;;;18.70;77.00
70900;BME280;67902;52.154;5.430;2023-05-07T08:11:43;101817.19;;;18.56;76.83
70900;BME280;67902;52.154;5.430;2023-05-07T08:14:11;101821.00;;;18.39;76.29
70900;BME280;67902;52.154;5.430;2023-05-07T08:16:37;101813.78;;;18.03;77.32
70900;BME280;67902;52.154;5.430;2023-05-07T08:19:04;101816.50;;;17.93;78.61
70900;BME280;67902;52.154;5.430;2023-05-07T08:21:30;101816.44;;;17.83;78.37
70900;BME280;67902;52.154;5.430;2023-05-07T08:23:59;101817.81;;;17.80;79.03
70900;BME280;67902;52.154;5.430;2023-05-07T08:26:26;101817.56;;;17.82;80.39
70900;BME280;67902;52.154;5.430;2023-05-07T08:28:52;101827.63;;;17.71;79.15
70900;BME280;67902;52.154;5.430;2023-05-07T08:31:19;101822.56;;;17.48;79.81
70900;BME280;67902;52.154;5.430;2023-05-07T08:33:45;101821.72;;;17.43;80.63
70900;BME280;67902;52.154;5.430;2023-05-07T08:36:12;101816.75;;;17.34;82.50
70900;BME280;67902;52.154;5.430;2023-05-07T08:38:38;101812.84;;;17.20;82.61
70900;BME280;67902;52.154;5.430;2023-05-07T08:41:10;101817.47;;;17.20;83.73
70900;BME280;67902;52.154;5.430;2023-05-07T08:43:38;101819.09;;;17.21;83.46
70900;BME280;67902;52.154;5.430;2023-05-07T08:46:09;101822.19;;;17.29;84.86
70900;BME280;67902;52.154;5.430;2023-05-07T08:48:37;101831.81;;;17.37;82.03
70900;BME280;67902;52.154;5.430;2023-05-07T08:51:03;101833.22;;;17.39;83.51
70900;BME280;67902;52.154;5.430;2023-05-07T08:53:30;101824.78;;;17.51;82.06
70900;BME280;67902;52.154;5.430;2023-05-07T08:55:56;101824.56;;;17.58;82.85
70900;BME280;67902;52.154;5.430;2023-05-07T08:58:23;101820.19;;;17.57;82.80
70900;BME280;67902;52.154;5.430;2023-05-07T09:00:51;101826.41;;;17.47;81.74
70900;BME280;67902;52.154;5.430;2023-05-07T09:03:18;101823.84;;;17.35;81.89
70900;BME280;67902;52.154;5.430;2023-05-07T09:05:45;101830.19;;;17.41;83.62
70900;BME280;67902;52.154;5.430;2023-05-07T09:08:15;101827.22;;;17.48;82.04
70900;BME280;67902;52.154;5.430;2023-05-07T09:10:42;101826.69;;;17.46;82.91
70900;BME280;67902;52.154;5.430;2023-05-07T09:13:08;101830.81;;;17.53;83.41
70900;BME280;67902;52.154;5.430;2023-05-07T09:15:36;101821.56;;;17.54;83.20
70900;BME280;67902;52.154;5.430;2023-05-07T09:18:03;101826.16;;;17.49;82.59
70900;BME280;67902;52.154;5.430;2023-05-07T09:20:30;101828.88;;;17.49;82.44
70900;BME280;67902;52.154;5.430;2023-05-07T09:22:57;101827.94;;;17.80;83.17
70900;BME280;67902;52.154;5.430;2023-05-07T09:25:31;101830.75;;;17.95;80.98
70900;BME280;67902;52.154;5.430;2023-05-07T09:27:59;101833.22;;;17.96;81.46
70900;BME280;67902;52.154;5.430;2023-05-07T09:30:33;101831.88;;;17.99;80.93
70900;BME280;67902;52.154;5.430;2023-05-07T09:33:01;101831.00;;;17.88;79.18
70900;BME280;67902;52.154;5.430;2023-05-07T09:35:29;101831.19;;;17.72;79.50
70900;BME280;67902;52.154;5.430;2023-05-07T09:37:58;101830.63;;;17.65;80.97
70900;BME280;67902;52.154;5.430;2023-05-07T09:40:30;101835.06;;;17.76;80.09
70900;BME280;67902;52.154;5.430;2023-05-07T09:43:08;101833.16;;;17.81;80.31
70900;BME280;67902;52.154;5.430;2023-05-07T09:45:36;101838.66;;;17.81;80.74
70900;BME280;67902;52.154;5.430;2023-05-07T09:48:04;101842.25;;;17.92;80.67
70900;BME280;67902;52.154;5.430;2023-05-07T09:50:36;101833.47;;;17.90;80.09
70900;BME280;67902;52.154;5.430;2023-05-07T09:53:05;101836.25;;;17.95;80.70
70900;BME280;67902;52.154;5.430;2023-05-07T09:55:32;101838.75;;;18.07;79.25
70900;BME280;67902;52.154;5.430;2023-05-07T09:57:58;101837.66;;;18.08;79.60
70900;BME280;67902;52.154;5.430;2023-05-07T10:00:25;101840.66;;;18.06;78.68
70900;BME280;67902;52.154;5.430;2023-05-07T10:02:56;101835.22;;;18.21;77.69
70900;BME280;67902;52.154;5.430;2023-05-07T10:05:23;101843.47;;;18.36;77.66
70900;BME280;67902;52.154;5.430;2023-05-07T10:07:52;101842.38;;;18.42;77.88
70900;BME280;67902;52.154;5.430;2023-05-07T10:10:19;101846.81;;;18.59;77.51
70900;BME280;67902;52.154;5.430;2023-05-07T10:12:46;101853.44;;;18.52;77.96
70900;BME280;67902;52.154;5.430;2023-05-07T10:15:13;101847.66;;;18.49;78.38
70900;BME280;67902;52.154;5.430;2023-05-07T10:17:40;101850.69;;;18.68;78.25
70900;BME280;67902;52.154;5.430;2023-05-07T10:20:08;101848.47;;;18.70;77.48
70900;BME280;67902;52.154;5.430;2023-05-07T10:22:41;101854.00;;;18.80;75.81
70900;BME280;67902;52.154;5.430;2023-05-07T10:25:25;101856.75;;;18.75;76.26
70900;BME280;67902;52.154;5.430;2023-05-07T10:27:52;101850.41;;;18.84;76.42
70900;BME280;67902;52.154;5.430;2023-05-07T10:33:23;101849.28;;;19.46;76.72
70900;BME280;67902;52.154;5.430;2023-05-07T10:35:55;101850.56;;;19.79;74.09
70900;BME280;67902;52.154;5.430;2023-05-07T10:38:24;101845.84;;;19.89;72.59
70900;BME280;67902;52.154;5.430;2023-05-07T10:40:51;101850.47;;;19.99;71.49
70900;BME280;67902;52.154;5.430;2023-05-07T10:43:18;101843.84;;;20.05;71.53
70900;BME280;67902;52.154;5.430;2023-05-07T10:46:14;101847.53;;;20.39;71.06
70900;BME280;67902;52.154;5.430;2023-05-07T10:51:27;101839.25;;;21.41;69.13
70900;BME280;67902;52.154;5.430;2023-05-07T10:56:36;101843.94;;;22.11;67.05
70900;BME280;67902;52.154;5.430;2023-05-07T11:02:01;101852.91;;;22.22;64.87
70900;BME280;67902;52.154;5.430;2023-05-07T11:04:32;101849.03;;;22.23;64.70
70900;BME280;67902;52.154;5.430;2023-05-07T11:15:13;101840.78;;;21.99;65.06
70900;BME280;67902;52.154;5.430;2023-05-07T11:18:00;101846.19;;;21.85;64.72
70900;BME280;67902;52.154;5.430;2023-05-07T11:20:51;101852.03;;;21.79;66.06
70900;BME280;67902;52.154;5.430;2023-05-07T11:26:10;101851.69;;;21.62;66.07
70900;BME280;67902;52.154;5.430;2023-05-07T11:28:38;101851.19;;;21.31;66.54
70900;BME280;67902;52.154;5.430;2023-05-07T11:31:05;101854.06;;;21.21;66.69
70900;BME280;67902;52.154;5.430;2023-05-07T11:33:32;101857.34;;;21.23;67.37
70900;BME280;67902;52.154;5.430;2023-05-07T11:35:59;101854.00;;;21.55;67.25
70900;BME280;67902;52.154;5.430;2023-05-07T11:38:26;101854.03;;;21.73;67.76
70900;BME280;67902;52.154;5.430;2023-05-07T11:40:58;101853.91;;;22.07;67.37
70900;BME280;67902;52.154;5.430;2023-05-07T11:43:28;101854.84;;;22.59;64.92
70900;BME280;67902;52.154;5.430;2023-05-07T11:46:05;101853.03;;;22.86;63.23
70900;BME280;67902;52.154;5.430;2023-05-07T11:48:31;101848.31;;;23.19;65.30
70900;BME280;67902;52.154;5.430;2023-05-07T11:53:25;101850.03;;;23.61;63.86
70900;BME280;67902;52.154;5.430;2023-05-07T11:55:55;101843.38;;;23.62;63.22
70900;BME280;67902;52.154;5.430;2023-05-07T11:58:24;101847.56;;;23.87;63.04
70900;BME280;67902;52.154;5.430;2023-05-07T12:00:54;101847.81;;;23.49;59.80
70900;BME280;67902;52.154;5.430;2023-05-07T12:03:20;101848.44;;;23.28;60.66
70900;BME280;67902;52.154;5.430;2023-05-07T12:05:47;101857.00;;;23.45;62.72
70900;BME280;67902;52.154;5.430;2023-05-07T12:08:17;101847.59;;;23.46;60.87
70900;BME280;67902;52.154;5.430;2023-05-07T12:10:47;101853.50;;;23.39;62.40
70900;BME280;67902;52.154;5.430;2023-05-07T12:13:24;101853.13;;;23.46;62.81
70900;BME280;67902;52.154;5.430;2023-05-07T12:15:52;101849.44;;;23.91;62.28
70900;BME280;67902;52.154;5.430;2023-05-07T12:18:19;101841.19;;;24.27;60.56
70900;BME280;67902;52.154;5.430;2023-05-07T12:20:47;101857.22;;;24.52;61.44
70900;BME280;67902;52.154;5.430;2023-05-07T12:23:14;101849.13;;;24.56;58.49
70900;BME280;67902;52.154;5.430;2023-05-07T12:25:42;101854.03;;;24.59;57.00
70900;BME280;67902;52.154;5.430;2023-05-07T12:28:14;101849.31;;;24.82;55.98
70900;BME280;67902;52.154;5.430;2023-05-07T12:30:45;101840.88;;;25.40;53.28
70900;BME280;67902;52.154;5.430;2023-05-07T12:33:22;101845.56;;;25.61;54.14
70900;BME280;67902;52.154;5.430;2023-05-07T12:35:49;101848.41;;;26.35;56.03
70900;BME280;67902;52.154;5.430;2023-05-07T12:38:16;101839.25;;;26.69;53.73
70900;BME280;67902;52.154;5.430;2023-05-07T12:40:48;101838.53;;;27.15;54.04
70900;BME280;67902;52.154;5.430;2023-05-07T12:43:18;101841.66;;;27.59;50.82
70900;BME280;67902;52.154;5.430;2023-05-07T12:45:47;101843.25;;;28.07;50.02
70900;BME280;67902;52.154;5.430;2023-05-07T12:48:14;101841.22;;;27.40;49.57
70900;BME280;67902;52.154;5.430;2023-05-07T12:50:41;101837.06;;;27.17;48.36
70900;BME280;67902;52.154;5.430;2023-05-07T12:53:09;101842.94;;;27.16;50.70
70900;BME280;67902;52.154;5.430;2023-05-07T12:55:45;101844.63;;;26.74;49.68
70900;BME280;67902;52.154;5.430;2023-05-07T12:58:28;101847.19;;;26.02;51.42
70900;BME280;67902;52.154;5.430;2023-05-07T13:00:56;101845.47;;;25.83;51.01
70900;BME280;67902;52.154;5.430;2023-05-07T13:03:31;101845.84;;;25.90;52.85
70900;BME280;67902;52.154;5.430;2023-05-07T13:05:59;101848.22;;;26.23;54.93
70900;BME280;67902;52.154;5.430;2023-05-07T13:08:34;101853.66;;;26.79;51.10
70900;BME280;67902;52.154;5.430;2023-05-07T13:11:02;101848.88;;;26.97;52.55
70900;BME280;67902;52.154;5.430;2023-05-07T13:13:31;101856.06;;;26.98;49.98
70900;BME280;67902;52.154;5.430;2023-05-07T13:15:58;101853.97;;;26.78;47.16
70900;BME280;67902;52.154;5.430;2023-05-07T13:18:25;101847.09;;;26.58;47.33